Time;durP1;ratioP1;P1;durP2;ratioP2;P2;SDS_P1;SDS_P2;PMS_P1;PMS_P2;Temp;Humidity;BMP_temperature;BMP_pressure;BME280_temperature;BME280_humidity;BME280_pressure;Samples;Min_cycle;Max_cycle;Signal;HPM_P1;HPM_P2
2021/01/16 00:01:03;;;;;;;;;;;1.70;99.90;;;;;;5153487;27;19911;-86
2021/01/16 00:03:31;;;;;;;;;;;1.70;99.90;;;;;;5158414;27;19911;-85
2021/01/16 00:06:00;;;;;;;;;;;1.70;99.90;;;;;;5158137;27;20394;-84
2021/01/16 00:08:27;;;;;;;;;;;1.70;99.90;;;;;;5158351;27;19946;-84
2021/01/16 00:11:01;;;;;;;;;;;1.70;99.90;;;;;;5177222;27;19907;-86
2021/01/16 00:13:29;;;;;;;;;;;1.70;99.90;;;;;;5157232;27;20270;-84
2021/01/16 00:15:54;;;;;;;;;;;1.70;99.90;;;;;;5176719;27;19917;-84
2021/01/16 00:18:21;;;;;;;;;;;1.70;99.90;;;;;;5153270;27;19922;-85
2021/01/16 00:20:59;;;;;;;;;;;1.70;99.90;;;;;;5157642;27;19911;-84
2021/01/16 00:23:28;;;;;;;;;;;1.70;99.90;;;;;;5155096;27;19911;-85
2021/01/16 00:25:55;;;;;;;;;;;1.70;99.90;;;;;;5158828;27;19910;-86
2021/01/16 00:28:26;;;;;;;;;;;1.70;99.90;;;;;;5158014;27;19913;-86
2021/01/16 00:30:55;;;;;;;;;;;1.70;99.90;;;;;;5176852;27;19959;-85
2021/01/16 00:33:21;;;;;;;;;;;1.70;99.90;;;;;;5177023;27;19910;-86
2021/01/16 00:35:56;;;;;;;;;;;1.60;99.90;;;;;;5158701;27;19907;-85
2021/01/16 00:38:27;;;;;;;;;;;1.60;99.90;;;;;;5176469;27;19911;-85
2021/01/16 00:40:56;;;;;;;;;;;1.60;99.90;;;;;;5157694;27;20375;-85
2021/01/16 00:43:25;;;;;;;;;;;1.70;99.90;;;;;;5176554;27;19942;-85
2021/01/16 00:45:56;;;;;;;;;;;1.60;99.90;;;;;;5153069;27;19972;-85
2021/01/16 00:48:25;;;;;;;;;;;1.60;99.90;;;;;;5157818;27;19907;-86
2021/01/16 00:50:58;;;;;;;;;;;1.60;99.90;;;;;;5158013;27;20001;-85
2021/01/16 00:53:24;;;;;;;;;;;1.60;99.90;;;;;;5157818;27;19911;-86
2021/01/16 00:55:51;;;;;;;;;;;1.60;99.90;;;;;;5158229;27;19961;-86
2021/01/16 00:58:20;;;;;;;;;;;1.60;99.90;;;;;;5157732;27;19914;-85
2021/01/16 01:00:47;;;;;;;;;;;1.60;99.90;;;;;;5157564;27;19914;-85
2021/01/16 01:03:19;;;;;;;;;;;1.60;99.90;;;;;;5158227;27;19906;-85
2021/01/16 01:05:48;;;;;;;;;;;1.60;99.90;;;;;;5157638;27;19966;-85
2021/01/16 01:08:14;;;;;;;;;;;1.60;99.90;;;;;;5176284;27;19906;-85
2021/01/16 01:10:49;;;;;;;;;;;1.60;99.90;;;;;;5176450;27;20001;-85
2021/01/16 01:13:18;;;;;;;;;;;1.60;99.90;;;;;;5157659;27;19911;-86
2021/01/16 01:15:43;;;;;;;;;;;1.60;99.90;;;;;;5152776;27;20005;-85
2021/01/16 01:18:12;;;;;;;;;;;1.60;99.90;;;;;;5151479;27;19997;-86
2021/01/16 01:20:38;;;;;;;;;;;1.60;99.90;;;;;;5169864;27;19907;-85
2021/01/16 01:23:03;;;;;;;;;;;1.60;99.90;;;;;;5157663;27;19914;-86
2021/01/16 01:25:29;;;;;;;;;;;1.60;99.90;;;;;;5155817;27;19907;-85
2021/01/16 01:27:56;;;;;;;;;;;1.60;99.90;;;;;;5180767;27;19907;-85
2021/01/16 01:30:28;;;;;;;;;;;1.60;99.90;;;;;;5161250;27;19914;-85
2021/01/16 01:32:54;;;;;;;;;;;1.60;99.90;;;;;;5161026;27;19979;-85
2021/01/16 01:35:20;;;;;;;;;;;1.60;99.90;;;;;;5180068;27;20347;-85
2021/01/16 01:37:54;;;;;;;;;;;1.60;99.90;;;;;;5174531;27;19948;-86
2021/01/16 01:40:20;;;;;;;;;;;1.60;99.90;;;;;;5180281;27;20303;-85
2021/01/16 01:42:47;;;;;;;;;;;1.60;99.90;;;;;;5161601;27;19911;-85
2021/01/16 01:45:16;;;;;;;;;;;1.60;99.90;;;;;;5158274;27;19922;-85
2021/01/16 01:47:43;;;;;;;;;;;1.60;99.90;;;;;;5141028;27;19930;-85
2021/01/16 01:50:16;;;;;;;;;;;1.60;99.90;;;;;;5139859;27;20271;-85
2021/01/16 01:52:46;;;;;;;;;;;1.60;99.90;;;;;;5140290;27;19961;-86
2021/01/16 01:55:12;;;;;;;;;;;1.60;99.90;;;;;;5136142;27;19908;-85
2021/01/16 01:58:00;;;;;;;;;;;1.60;99.90;;;;;;5158791;27;19914;-85
2021/01/16 02:00:26;;;;;;;;;;;1.60;99.90;;;;;;5158555;27;19915;-85
2021/01/16 02:02:54;;;;;;;;;;;1.60;99.90;;;;;;5140260;27;19914;-85
2021/01/16 02:05:27;;;;;;;;;;;1.60;99.90;;;;;;5158140;27;19907;-85
2021/01/16 02:07:53;;;;;;;;;;;1.60;99.90;;;;;;5140783;27;19918;-85
2021/01/16 02:10:23;;;;;;;;;;;1.60;99.90;;;;;;5139193;27;19907;-86
2021/01/16 02:12:53;;;;;;;;;;;1.60;99.90;;;;;;5139624;27;19972;-86
2021/01/16 02:15:26;;;;;;;;;;;1.60;99.90;;;;;;5139746;27;20363;-86
2021/01/16 02:18:21;;;;;;;;;;;1.60;99.90;;;;;;5139453;27;20389;-85
2021/01/16 02:20:51;;;;;;;;;;;1.60;99.90;;;;;;5116874;27;19915;-86
2021/01/16 02:23:45;;;;;;;;;;;1.60;99.90;;;;;;5158053;27;20422;-86
2021/01/16 02:26:11;;;;;;;;;;;1.60;99.90;;;;;;5138853;27;19907;-86
2021/01/16 02:28:40;;;;;;;;;;;1.60;99.90;;;;;;5139304;27;19907;-85
2021/01/16 02:31:09;;;;;;;;;;;1.70;99.90;;;;;;5139883;27;19914;-86
2021/01/16 02:33:37;;;;;;;;;;;1.70;99.90;;;;;;5139837;27;20034;-86
2021/01/16 02:36:06;;;;;;;;;;;1.70;99.90;;;;;;5139462;27;19914;-85
2021/01/16 02:38:51;;;;;;;;;;;1.70;99.90;;;;;;5139714;27;19915;-85
2021/01/16 02:41:22;;;;;;;;;;;1.60;99.90;;;;;;5139564;27;19907;-85
2021/01/16 02:44:02;;;;;;;;;;;1.60;99.90;;;;;;5139328;27;19907;-86
2021/01/16 02:46:48;;;;;;;;;;;1.70;99.90;;;;;;5139209;27;19952;-85
2021/01/16 02:49:37;;;;;;;;;;;1.70;99.90;;;;;;5139711;27;19907;-86
2021/01/16 02:52:09;;;;;;;;;;;1.60;99.90;;;;;;5135865;27;19955;-85
2021/01/16 02:54:40;;;;;;;;;;;1.70;99.90;;;;;;5139009;27;19960;-86
2021/01/16 02:57:07;;;;;;;;;;;1.60;99.90;;;;;;5138919;27;19911;-85
2021/01/16 02:59:40;;;;;;;;;;;1.60;99.90;;;;;;5139154;27;20079;-85
2021/01/16 03:02:09;;;;;;;;;;;1.70;99.90;;;;;;5139265;27;20370;-85
2021/01/16 03:04:35;;;;;;;;;;;1.60;99.90;;;;;;5146439;27;19964;-87
2021/01/16 03:07:04;;;;;;;;;;;1.60;99.90;;;;;;5142798;27;19911;-85
2021/01/16 03:09:31;;;;;;;;;;;1.60;99.90;;;;;;5141205;27;19907;-84
2021/01/16 03:11:57;;;;;;;;;;;1.60;99.90;;;;;;5140683;27;19946;-85
2021/01/16 03:14:31;;;;;;;;;;;1.60;99.90;;;;;;5139718;27;19911;-84
2021/01/16 03:17:06;;;;;;;;;;;1.60;99.90;;;;;;5138632;27;19911;-84
2021/01/16 03:19:33;;;;;;;;;;;1.60;99.90;;;;;;5157354;27;20014;-84
2021/01/16 03:21:59;;;;;;;;;;;1.60;99.90;;;;;;5135324;27;19957;-84
2021/01/16 03:24:30;;;;;;;;;;;1.60;99.90;;;;;;5133645;27;19915;-85
2021/01/16 03:26:56;;;;;;;;;;;1.60;99.90;;;;;;5138786;27;19914;-85
2021/01/16 03:29:26;;;;;;;;;;;1.60;99.90;;;;;;5156614;27;19910;-84
2021/01/16 03:31:52;;;;;;;;;;;1.60;99.90;;;;;;5138146;27;19914;-85
2021/01/16 03:34:17;;;;;;;;;;;1.60;99.90;;;;;;5138254;27;19907;-84
2021/01/16 03:36:51;;;;;;;;;;;1.60;99.90;;;;;;5138782;27;19960;-85
2021/01/16 03:39:23;;;;;;;;;;;1.60;99.90;;;;;;5151211;27;20006;-85
2021/01/16 03:41:51;;;;;;;;;;;1.60;99.90;;;;;;5137899;27;19914;-84
2021/01/16 03:44:26;;;;;;;;;;;1.50;99.90;;;;;;5135402;27;19912;-85
2021/01/16 03:46:54;;;;;;;;;;;1.50;99.90;;;;;;5138290;27;20299;-84
2021/01/16 03:49:23;;;;;;;;;;;1.50;99.90;;;;;;5138762;27;20001;-85
2021/01/16 03:51:51;;;;;;;;;;;1.50;99.90;;;;;;5138399;27;19907;-84
2021/01/16 03:54:17;;;;;;;;;;;1.50;99.90;;;;;;5137873;27;19914;-84
2021/01/16 03:56:45;;;;;;;;;;;1.50;99.90;;;;;;5131431;27;19907;-85
2021/01/16 03:59:13;;;;;;;;;;;1.50;99.90;;;;;;5137595;27;19921;-85
2021/01/16 04:01:40;;;;;;;;;;;1.50;99.90;;;;;;5138625;27;19930;-85
2021/01/16 04:04:05;;;;;;;;;;;1.50;99.90;;;;;;5137880;27;19907;-85
2021/01/16 04:06:33;;;;;;;;;;;1.50;99.90;;;;;;5131361;27;20423;-85
2021/01/16 04:08:59;;;;;;;;;;;1.50;99.90;;;;;;5156487;27;20386;-85
2021/01/16 04:11:27;;;;;;;;;;;1.50;99.90;;;;;;5131164;27;19907;-84
2021/01/16 04:13:53;;;;;;;;;;;1.50;99.90;;;;;;5153040;27;20308;-85
2021/01/16 04:16:19;;;;;;;;;;;1.50;99.90;;;;;;5137183;27;19907;-85
2021/01/16 04:18:46;;;;;;;;;;;1.50;99.90;;;;;;5137632;27;19919;-85
2021/01/16 04:21:12;;;;;;;;;;;1.50;99.90;;;;;;5137993;27;19907;-85
2021/01/16 04:23:40;;;;;;;;;;;1.50;99.90;;;;;;5137793;27;20326;-85
2021/01/16 04:26:05;;;;;;;;;;;1.50;99.90;;;;;;5136839;27;20382;-86
2021/01/16 04:28:31;;;;;;;;;;;1.50;99.90;;;;;;5156366;27;19907;-85
2021/01/16 04:31:02;;;;;;;;;;;1.50;99.90;;;;;;5156075;27;19918;-85
2021/01/16 04:33:27;;;;;;;;;;;1.50;99.90;;;;;;5137307;27;19908;-85
2021/01/16 04:35:58;;;;;;;;;;;1.50;99.90;;;;;;5137255;27;19978;-84
2021/01/16 04:38:30;;;;;;;;;;;1.50;99.90;;;;;;5155611;27;19911;-85
2021/01/16 04:40:58;;;;;;;;;;;1.50;99.90;;;;;;5156505;27;19915;-85
2021/01/16 04:43:26;;;;;;;;;;;1.50;99.90;;;;;;5137307;27;19907;-85
2021/01/16 04:45:52;;;;;;;;;;;1.50;99.90;;;;;;5155842;27;19919;-85
2021/01/16 04:48:21;;;;;;;;;;;1.50;99.90;;;;;;5139400;27;19914;-84
2021/01/16 04:50:48;;;;;;;;;;;1.50;99.90;;;;;;5140458;27;20283;-84
2021/01/16 04:53:19;;;;;;;;;;;1.50;99.90;;;;;;5136864;27;20005;-85
2021/01/16 04:55:48;;;;;;;;;;;1.50;99.90;;;;;;5137889;27;20286;-85
2021/01/16 04:58:16;;;;;;;;;;;1.50;99.90;;;;;;5137908;27;19970;-84
2021/01/16 05:00:44;;;;;;;;;;;1.50;99.90;;;;;;5141193;27;19911;-85
2021/01/16 05:03:19;;;;;;;;;;;1.50;99.90;;;;;;5141170;27;19907;-86
2021/01/16 05:05:45;;;;;;;;;;;1.50;99.90;;;;;;5153104;27;19911;-85
2021/01/16 05:08:11;;;;;;;;;;;1.50;99.90;;;;;;5140742;27;19946;-85
2021/01/16 05:10:40;;;;;;;;;;;1.50;99.90;;;;;;5136394;27;19907;-85
2021/01/16 05:13:10;;;;;;;;;;;1.50;99.90;;;;;;5159750;27;19914;-84
2021/01/16 05:15:36;;;;;;;;;;;1.50;99.90;;;;;;5140942;27;19907;-85
2021/01/16 05:18:04;;;;;;;;;;;1.50;99.90;;;;;;5134423;27;19911;-85
2021/01/16 05:20:30;;;;;;;;;;;1.50;99.90;;;;;;5140068;27;19915;-85
2021/01/16 05:25:53;;;;;;;;;;;1.40;99.90;;;;;;5158893;27;19916;-85
2021/01/16 05:28:19;;;;;;;;;;;1.50;99.90;;;;;;5141054;27;19907;-85
2021/01/16 05:30:46;;;;;;;;;;;1.50;99.90;;;;;;5140784;27;19907;-85
2021/01/16 05:33:12;;;;;;;;;;;1.50;99.90;;;;;;5141288;27;20252;-85
2021/01/16 05:35:37;;;;;;;;;;;1.50;99.90;;;;;;5156288;27;19918;-85
2021/01/16 05:38:03;;;;;;;;;;;1.60;99.90;;;;;;5134192;27;19911;-85
2021/01/16 05:40:32;;;;;;;;;;;1.50;99.90;;;;;;5159363;27;19918;-85
2021/01/16 05:42:59;;;;;;;;;;;1.60;99.90;;;;;;5140092;27;19907;-85
2021/01/16 05:45:33;;;;;;;;;;;1.60;99.90;;;;;;5139887;27;19934;-85
2021/01/16 05:47:59;;;;;;;;;;;1.50;99.90;;;;;;5140117;27;19968;-85
2021/01/16 05:50:28;;;;;;;;;;;1.60;99.90;;;;;;5140184;27;19911;-85
2021/01/16 05:52:55;;;;;;;;;;;1.60;99.90;;;;;;5135964;27;19930;-85
2021/01/16 05:55:31;;;;;;;;;;;1.60;99.90;;;;;;5140800;27;19969;-84
2021/01/16 05:58:03;;;;;;;;;;;1.60;99.90;;;;;;5140264;27;19915;-85
2021/01/16 06:00:33;;;;;;;;;;;1.60;99.90;;;;;;5140017;27;19907;-85
2021/01/16 06:03:01;;;;;;;;;;;1.60;99.90;;;;;;5134033;27;19930;-85
2021/01/16 06:05:28;;;;;;;;;;;1.50;99.90;;;;;;5140326;27;19938;-85
2021/01/16 06:07:57;;;;;;;;;;;1.60;99.90;;;;;;5140756;27;19907;-85
2021/01/16 06:10:31;;;;;;;;;;;1.60;99.90;;;;;;5138946;27;19999;-84
2021/01/16 06:13:08;;;;;;;;;;;1.60;99.90;;;;;;5139997;27;19915;-85
2021/01/16 06:15:34;;;;;;;;;;;1.60;99.90;;;;;;5158182;27;19968;-85
2021/01/16 06:18:00;;;;;;;;;;;1.60;99.90;;;;;;5139444;27;20355;-84
2021/01/16 06:20:27;;;;;;;;;;;1.60;99.90;;;;;;5037145;28;19913;-85
2021/01/16 06:22:53;;;;;;;;;;;1.60;99.90;;;;;;5055503;28;20420;-84
2021/01/16 06:25:23;;;;;;;;;;;1.60;99.90;;;;;;5055945;28;19960;-86
2021/01/16 06:27:51;;;;;;;;;;;1.60;99.90;;;;;;5054027;28;19916;-86
2021/01/16 06:30:27;;;;;;;;;;;1.60;99.90;;;;;;5054894;28;19955;-85
2021/01/16 06:32:55;;;;;;;;;;;1.60;99.90;;;;;;5054211;28;19920;-86
2021/01/16 06:35:34;;;;;;;;;;;1.60;99.90;;;;;;5051257;28;19960;-86
2021/01/16 06:38:01;;;;;;;;;;;1.60;99.90;;;;;;5037033;28;19920;-85
2021/01/16 06:40:33;;;;;;;;;;;1.60;99.90;;;;;;5048174;28;19913;-86
2021/01/16 06:42:59;;;;;;;;;;;1.70;99.90;;;;;;5053691;28;19909;-86
2021/01/16 06:45:26;;;;;;;;;;;1.60;99.90;;;;;;5051509;28;19917;-86
2021/01/16 06:47:58;;;;;;;;;;;1.70;99.90;;;;;;5094269;28;20391;-87
2021/01/16 06:50:24;;;;;;;;;;;1.60;99.90;;;;;;5099873;27;19908;-86
2021/01/16 06:52:50;;;;;;;;;;;1.60;99.90;;;;;;5132814;27;19914;-85
2021/01/16 06:55:28;;;;;;;;;;;1.60;99.90;;;;;;5136029;27;20337;-86
2021/01/16 06:57:57;;;;;;;;;;;1.60;99.90;;;;;;5156053;27;19922;-86
2021/01/16 07:00:22;;;;;;;;;;;1.60;99.90;;;;;;5138578;27;19911;-86
2021/01/16 07:02:50;;;;;;;;;;;1.60;99.90;;;;;;5157324;27;19922;-86
2021/01/16 07:05:18;;;;;;;;;;;1.60;99.90;;;;;;5138660;27;20367;-86
2021/01/16 07:07:48;;;;;;;;;;;1.60;99.90;;;;;;5138775;27;19913;-84
2021/01/16 07:10:20;;;;;;;;;;;1.60;99.90;;;;;;5138524;27;19993;-84
2021/01/16 07:12:48;;;;;;;;;;;1.60;99.90;;;;;;5138679;27;19968;-84
2021/01/16 07:15:15;;;;;;;;;;;1.60;99.90;;;;;;5156537;27;19911;-84
2021/01/16 07:17:43;;;;;;;;;;;1.60;99.90;;;;;;5131656;27;20360;-84
2021/01/16 07:20:09;;;;;;;;;;;1.60;99.90;;;;;;5156502;27;19955;-84
2021/01/16 07:22:38;;;;;;;;;;;1.60;99.90;;;;;;5137973;27;19911;-85
2021/01/16 07:25:07;;;;;;;;;;;1.60;99.90;;;;;;5138463;27;19907;-84
2021/01/16 07:27:37;;;;;;;;;;;1.60;99.90;;;;;;5150608;27;19907;-86
2021/01/16 07:30:04;;;;;;;;;;;1.60;99.90;;;;;;5154844;27;19907;-84
2021/01/16 07:32:46;;;;;;;;;;;1.60;99.90;;;;;;5156037;27;19930;-86
2021/01/16 07:35:17;;;;;;;;;;;1.60;99.90;;;;;;5156882;27;19914;-86
2021/01/16 07:37:43;;;;;;;;;;;1.60;99.90;;;;;;5157482;27;19945;-86
2021/01/16 07:40:16;;;;;;;;;;;1.60;99.90;;;;;;5138106;27;19911;-86
2021/01/16 07:43:03;;;;;;;;;;;1.60;99.90;;;;;;5113094;28;19995;-86
2021/01/16 07:45:34;;;;;;;;;;;1.60;99.90;;;;;;5110227;27;19907;-86
2021/01/16 07:48:01;;;;;;;;;;;1.60;99.90;;;;;;5125270;27;19954;-86
2021/01/16 07:50:34;;;;;;;;;;;1.60;99.90;;;;;;5138144;27;19914;-86
2021/01/16 07:53:01;;;;;;;;;;;1.60;99.90;;;;;;5138015;27;19907;-86
2021/01/16 07:55:50;;;;;;;;;;;1.60;99.90;;;;;;5138037;27;20424;-86
2021/01/16 07:58:18;;;;;;;;;;;1.70;99.90;;;;;;5131978;27;20260;-86
2021/01/16 08:00:48;;;;;;;;;;;1.60;99.90;;;;;;5134637;27;20355;-86
2021/01/16 08:03:16;;;;;;;;;;;1.60;99.90;;;;;;5124317;27;19927;-86
2021/01/16 08:05:56;;;;;;;;;;;1.70;99.90;;;;;;5117010;28;19907;-86
2021/01/16 08:08:36;;;;;;;;;;;1.70;99.90;;;;;;5118875;27;19909;-85
2021/01/16 08:11:02;;;;;;;;;;;1.70;99.90;;;;;;5122661;27;20383;-86
2021/01/16 08:13:28;;;;;;;;;;;1.70;99.90;;;;;;5131269;27;19911;-85
2021/01/16 08:16:02;;;;;;;;;;;1.70;99.90;;;;;;5116699;28;19907;-85
2021/01/16 08:18:29;;;;;;;;;;;1.70;99.90;;;;;;5100865;28;19926;-86
2021/01/16 08:20:55;;;;;;;;;;;1.80;99.90;;;;;;5093909;28;20383;-84
2021/01/16 08:23:22;;;;;;;;;;;1.80;99.90;;;;;;5135573;28;19911;-85
2021/01/16 08:25:47;;;;;;;;;;;1.80;99.90;;;;;;5135357;28;19908;-85
2021/01/16 08:28:21;;;;;;;;;;;1.80;99.90;;;;;;5117273;28;19908;-85
2021/01/16 08:30:50;;;;;;;;;;;1.80;99.90;;;;;;5116086;27;19911;-85
2021/01/16 08:33:15;;;;;;;;;;;1.80;99.90;;;;;;5120127;27;19916;-84
2021/01/16 08:35:47;;;;;;;;;;;1.80;99.90;;;;;;5124773;27;19934;-84
2021/01/16 08:38:18;;;;;;;;;;;1.90;99.90;;;;;;5124508;27;19919;-85
2021/01/16 08:40:55;;;;;;;;;;;1.90;99.90;;;;;;5133970;27;19919;-85
2021/01/16 08:43:34;;;;;;;;;;;1.90;99.90;;;;;;5122593;27;19908;-85
2021/01/16 08:46:19;;;;;;;;;;;1.90;99.90;;;;;;5141223;27;20317;-84
2021/01/16 08:49:04;;;;;;;;;;;2.00;99.90;;;;;;5142547;27;20355;-86
2021/01/16 08:51:31;;;;;;;;;;;2.00;99.90;;;;;;5121545;27;19957;-86
2021/01/16 08:54:19;;;;;;;;;;;2.00;99.90;;;;;;5120158;27;20006;-85
2021/01/16 08:56:48;;;;;;;;;;;2.10;99.90;;;;;;5120135;27;20011;-85
2021/01/16 08:59:19;;;;;;;;;;;2.10;99.90;;;;;;5120409;27;19916;-85
2021/01/16 09:01:48;;;;;;;;;;;2.10;99.90;;;;;;5139416;27;19941;-86
2021/01/16 09:04:14;;;;;;;;;;;2.10;99.90;;;;;;5151644;27;19913;-85
2021/01/16 09:06:43;;;;;;;;;;;2.10;99.90;;;;;;5161939;27;19918;-85
2021/01/16 09:09:19;;;;;;;;;;;2.20;99.90;;;;;;5156783;27;19907;-84
2021/01/16 09:12:03;;;;;;;;;;;2.20;99.90;;;;;;5120695;27;20002;-86
2021/01/16 09:14:29;;;;;;;;;;;2.20;99.90;;;;;;5120551;27;19950;-87
2021/01/16 09:17:15;;;;;;;;;;;2.30;99.90;;;;;;5120044;27;19975;-86
2021/01/16 09:19:41;;;;;;;;;;;2.40;99.90;;;;;;5120304;27;19916;-86
2021/01/16 09:22:19;;;;;;;;;;;2.40;99.90;;;;;;5136943;27;20201;-86
2021/01/16 09:24:48;;;;;;;;;;;2.40;99.90;;;;;;5119848;27;19967;-86
2021/01/16 09:27:43;;;;;;;;;;;2.40;99.90;;;;;;5119946;27;19911;-86
2021/01/16 09:30:18;;;;;;;;;;;2.40;99.90;;;;;;5119120;27;19959;-85
2021/01/16 09:32:43;;;;;;;;;;;2.40;99.90;;;;;;5116750;27;20291;-85
2021/01/16 09:35:09;;;;;;;;;;;2.40;99.90;;;;;;5130167;27;19913;-85
2021/01/16 09:37:55;;;;;;;;;;;2.40;99.90;;;;;;5095041;28;20446;-85
2021/01/16 09:40:26;;;;;;;;;;;2.40;99.90;;;;;;5076905;28;19916;-85
2021/01/16 09:43:03;;;;;;;;;;;2.40;99.90;;;;;;5077141;28;19912;-85
2021/01/16 09:45:48;;;;;;;;;;;2.40;99.90;;;;;;5101211;28;19957;-85
2021/01/16 09:48:38;;;;;;;;;;;2.40;99.90;;;;;;5113536;28;19919;-86
2021/01/16 09:51:18;;;;;;;;;;;2.40;99.90;;;;;;5109103;28;19908;-85
2021/01/16 09:53:46;;;;;;;;;;;2.40;99.90;;;;;;5106445;28;19908;-84
2021/01/16 09:56:32;;;;;;;;;;;2.50;99.90;;;;;;5099142;28;19912;-86
2021/01/16 09:59:04;;;;;;;;;;;2.60;99.90;;;;;;5098031;28;19984;-84
2021/01/16 10:01:34;;;;;;;;;;;2.60;99.90;;;;;;5097720;28;19915;-85
2021/01/16 10:04:10;;;;;;;;;;;2.60;99.90;;;;;;5121451;28;19959;-86
2021/01/16 10:06:39;;;;;;;;;;;2.70;99.90;;;;;;5106019;28;19908;-86
2021/01/16 10:09:20;;;;;;;;;;;2.70;99.90;;;;;;5151503;27;19961;-84
2021/01/16 10:11:50;;;;;;;;;;;2.70;99.90;;;;;;5062574;28;19909;-84
2021/01/16 10:14:19;;;;;;;;;;;2.70;99.90;;;;;;5058154;28;19908;-84
2021/01/16 10:20:16;;;;;;;;;;;2.70;99.70;;;;;;5073678;28;20019;-85
2021/01/16 10:22:54;;;;;;;;;;;2.70;99.20;;;;;;5058454;28;19935;-86
2021/01/16 10:28:36;;;;;;;;;;;2.70;99.30;;;;;;5035498;28;19909;-86
2021/01/16 10:31:09;;;;;;;;;;;2.70;99.30;;;;;;5052606;28;19912;-87
2021/01/16 10:33:45;;;;;;;;;;;2.80;99.20;;;;;;5060120;28;19917;-85
2021/01/16 10:36:37;;;;;;;;;;;2.80;98.60;;;;;;5033826;28;19917;-86
2021/01/16 10:45:56;;;;;;;;;;;2.80;97.50;;;;;;4975389;28;20260;-85
2021/01/16 10:48:37;;;;;;;;;;;2.80;97.40;;;;;;4912147;29;20011;-87
2021/01/16 10:51:54;;;;;;;;;;;;;;;;;;;;;
2021/01/16 10:54:33;;;;;;;;;;;2.90;96.30;;;;;;4993560;28;19933;-85
2021/01/16 10:57:01;;;;;;;;;;;2.90;95.90;;;;;;4965379;28;19914;-85
2021/01/16 11:00:11;;;;;;;;;;;;;;;;;;;;;
2021/01/16 11:03:05;;;;;;;;;;;3.00;95.30;;;;;;5123135;27;19912;-86
2021/01/16 11:05:44;;;;;;;;;;;2.90;94.60;;;;;;5111322;27;19918;-85
2021/01/16 11:08:14;;;;;;;;;;;3.00;94.50;;;;;;5098491;27;19911;-87
2021/01/16 11:10:50;;;;;;;;;;;2.90;94.30;;;;;;5132614;27;20386;-85
2021/01/16 11:16:46;;;;;;;;;;;3.00;94.20;;;;;;5127683;27;19908;-85
2021/01/16 11:19:35;;;;;;;;;;;3.00;93.00;;;;;;5118428;27;19911;-86
2021/01/16 11:22:10;;;;;;;;;;;3.00;92.30;;;;;;5136035;27;19912;-85
2021/01/16 11:25:03;;;;;;;;;;;3.00;92.30;;;;;;5113465;27;19908;-86
2021/01/16 11:27:36;;;;;;;;;;;3.00;92.40;;;;;;5117709;27;19914;-86
2021/01/16 11:30:12;;;;;;;;;;;3.00;91.70;;;;;;5117975;27;19908;-85
2021/01/16 11:32:40;;;;;;;;;;;3.10;91.80;;;;;;5117836;27;19946;-85
2021/01/16 11:35:10;;;;;;;;;;;3.10;91.80;;;;;;5113465;27;19957;-84
2021/01/16 11:37:45;;;;;;;;;;;3.10;91.20;;;;;;5094058;28;19948;-85
2021/01/16 11:40:30;;;;;;;;;;;3.10;90.50;;;;;;5071627;28;20010;-85
2021/01/16 11:43:13;;;;;;;;;;;3.10;90.80;;;;;;5093314;28;19912;-86
2021/01/16 11:46:02;;;;;;;;;;;3.10;91.00;;;;;;5076811;28;20408;-85
2021/01/16 11:48:32;;;;;;;;;;;3.10;91.00;;;;;;5096261;28;20265;-86
2021/01/16 11:51:20;;;;;;;;;;;3.20;91.30;;;;;;5094972;28;20253;-87
2021/01/16 11:53:56;;;;;;;;;;;3.20;90.90;;;;;;5096358;28;20276;-85
2021/01/16 11:56:25;;;;;;;;;;;3.20;91.10;;;;;;5095795;28;20364;-87
2021/01/16 11:58:54;;;;;;;;;;;3.20;90.90;;;;;;5090520;28;19918;-85
2021/01/16 12:01:23;;;;;;;;;;;3.20;91.00;;;;;;5092686;28;20022;-86
2021/01/16 12:03:49;;;;;;;;;;;3.20;90.90;;;;;;5096218;28;20006;-85
2021/01/16 12:06:27;;;;;;;;;;;3.20;90.70;;;;;;5092421;28;19970;-86
2021/01/16 12:09:00;;;;;;;;;;;3.30;90.80;;;;;;5110311;27;19950;-86
2021/01/16 12:11:28;;;;;;;;;;;3.30;91.00;;;;;;5132981;27;20014;-85
2021/01/16 12:13:58;;;;;;;;;;;3.30;90.60;;;;;;5150776;27;19911;-86
2021/01/16 12:16:34;;;;;;;;;;;3.30;90.70;;;;;;5138170;27;19908;-86
2021/01/16 12:19:14;;;;;;;;;;;3.30;91.10;;;;;;5140703;27;19919;-86
2021/01/16 12:22:07;;;;;;;;;;;3.30;90.90;;;;;;5144878;27;19938;-86
2021/01/16 12:24:33;;;;;;;;;;;3.30;90.10;;;;;;5127111;27;19954;-86
2021/01/16 12:27:05;;;;;;;;;;;3.30;90.30;;;;;;5130596;27;19914;-86
2021/01/16 12:29:42;;;;;;;;;;;3.30;90.70;;;;;;5134886;27;19911;-86
2021/01/16 12:32:07;;;;;;;;;;;3.30;90.10;;;;;;5131595;27;20298;-86
2021/01/16 12:34:47;;;;;;;;;;;3.30;89.50;;;;;;5126467;28;19915;-86
2021/01/16 12:37:29;;;;;;;;;;;3.30;89.80;;;;;;5123336;28;19907;-87
2021/01/16 12:40:04;;;;;;;;;;;3.30;90.00;;;;;;5111051;28;19927;-86
2021/01/16 12:42:34;;;;;;;;;;;3.30;90.20;;;;;;5050081;28;19919;-86
2021/01/16 12:45:08;;;;;;;;;;;3.30;88.80;;;;;;5035621;28;19908;-86
2021/01/16 12:47:42;;;;;;;;;;;3.30;88.60;;;;;;5074592;28;19927;-86
2021/01/16 12:50:20;;;;;;;;;;;3.30;88.60;;;;;;5074924;28;19920;-86
2021/01/16 12:52:53;;;;;;;;;;;3.30;88.70;;;;;;5075601;28;19916;-86
2021/01/16 12:55:25;;;;;;;;;;;3.20;87.20;;;;;;5075607;28;19923;-85
2021/01/16 12:58:00;;;;;;;;;;;3.20;87.30;;;;;;5092410;28;19931;-85
2021/01/16 13:00:33;;;;;;;;;;;3.20;87.90;;;;;;5073791;28;19923;-85
2021/01/16 13:03:04;;;;;;;;;;;3.10;88.00;;;;;;5093068;28;19930;-90
2021/01/16 13:05:34;;;;;;;;;;;3.10;88.50;;;;;;5076797;28;19947;-88
2021/01/16 13:08:02;;;;;;;;;;;3.10;88.90;;;;;;5076927;28;20365;-93
2021/01/16 13:10:33;;;;;;;;;;;3.10;89.50;;;;;;5075971;28;19915;-89
2021/01/16 13:13:02;;;;;;;;;;;3.10;88.00;;;;;;5070525;28;19924;-88
2021/01/16 13:15:37;;;;;;;;;;;3.10;88.50;;;;;;5095333;28;19934;-81
2021/01/16 13:18:14;;;;;;;;;;;3.10;88.60;;;;;;5100029;28;19908;-90
2021/01/16 13:20:48;;;;;;;;;;;3.10;87.00;;;;;;5113885;27;20356;-83
2021/01/16 13:23:20;;;;;;;;;;;3.00;86.20;;;;;;5121007;27;19912;-83
2021/01/16 13:25:56;;;;;;;;;;;3.00;85.80;;;;;;5155718;27;19929;-84
2021/01/16 13:28:29;;;;;;;;;;;3.00;84.70;;;;;;5158457;27;19907;-84
2021/01/16 13:31:00;;;;;;;;;;;2.90;83.90;;;;;;5133124;27;20081;-83
2021/01/16 13:33:28;;;;;;;;;;;2.90;84.00;;;;;;5128094;27;19911;-83
2021/01/16 13:36:09;;;;;;;;;;;2.90;84.60;;;;;;5138045;27;19949;-83
2021/01/16 13:38:38;;;;;;;;;;;2.90;85.20;;;;;;5123205;27;19922;-85
2021/01/16 13:41:36;;;;;;;;;;;2.90;84.40;;;;;;5074156;28;19916;-85
2021/01/16 13:44:04;;;;;;;;;;;2.80;84.20;;;;;;5053286;28;19995;-85
2021/01/16 13:46:43;;;;;;;;;;;2.80;83.60;;;;;;5054871;28;20267;-87
2021/01/16 13:49:11;;;;;;;;;;;2.80;83.70;;;;;;5039662;28;19909;-84
2021/01/16 13:51:46;;;;;;;;;;;2.80;83.30;;;;;;5037982;28;20354;-84
2021/01/16 13:54:15;;;;;;;;;;;2.70;83.60;;;;;;5081365;28;20437;-84
2021/01/16 13:56:50;;;;;;;;;;;2.80;84.80;;;;;;5066566;28;19909;-84
2021/01/16 13:59:28;;;;;;;;;;;2.80;84.70;;;;;;5053032;28;19917;-84
2021/01/16 14:01:59;;;;;;;;;;;2.70;84.40;;;;;;5081721;28;19924;-85
2021/01/16 14:04:26;;;;;;;;;;;2.70;83.40;;;;;;5070234;28;19955;-84
2021/01/16 14:07:02;;;;;;;;;;;2.70;83.50;;;;;;5057023;28;20015;-84
2021/01/16 14:09:27;;;;;;;;;;;2.70;83.90;;;;;;5056268;28;19909;-86
2021/01/16 14:12:02;;;;;;;;;;;2.70;84.30;;;;;;5102238;27;20291;-85
2021/01/16 14:14:36;;;;;;;;;;;2.60;84.70;;;;;;5135244;27;20393;-85
2021/01/16 14:17:10;;;;;;;;;;;2.60;84.40;;;;;;5148000;27;19911;-85
2021/01/16 14:19:43;;;;;;;;;;;2.60;85.10;;;;;;5156644;27;19923;-84
2021/01/16 14:22:11;;;;;;;;;;;2.60;85.40;;;;;;5139466;27;20003;-87
2021/01/16 14:24:45;;;;;;;;;;;2.60;84.70;;;;;;5127808;27;19988;-85
2021/01/16 14:27:16;;;;;;;;;;;2.50;85.00;;;;;;5136276;27;19915;-85
2021/01/16 14:29:45;;;;;;;;;;;2.50;85.20;;;;;;5138979;27;20401;-86
2021/01/16 14:32:29;;;;;;;;;;;2.50;85.40;;;;;;5137825;27;19907;-85
2021/01/16 14:35:21;;;;;;;;;;;2.50;85.10;;;;;;5154647;27;19914;-86
2021/01/16 14:37:58;;;;;;;;;;;2.40;85.20;;;;;;5139264;27;19914;-86
2021/01/16 14:40:33;;;;;;;;;;;2.40;83.80;;;;;;5145973;27;19919;-86
2021/01/16 14:43:04;;;;;;;;;;;2.40;83.90;;;;;;5114201;27;19999;-85
2021/01/16 14:45:35;;;;;;;;;;;2.40;83.80;;;;;;5118735;27;19907;-86
2021/01/16 14:48:16;;;;;;;;;;;2.40;83.00;;;;;;5118655;27;19919;-85
2021/01/16 14:50:49;;;;;;;;;;;2.40;82.40;;;;;;5124171;27;19915;-85
2021/01/16 14:53:32;;;;;;;;;;;2.40;83.10;;;;;;5138815;27;19919;-84
2021/01/16 14:56:12;;;;;;;;;;;2.30;82.30;;;;;;5155077;27;19914;-84
2021/01/16 14:59:04;;;;;;;;;;;2.30;83.00;;;;;;5158620;27;19916;-86
2021/01/16 15:01:36;;;;;;;;;;;2.30;82.00;;;;;;5145922;27;19907;-85
2021/01/16 15:04:05;;;;;;;;;;;2.30;82.00;;;;;;5139553;27;19930;-85
2021/01/16 15:06:50;;;;;;;;;;;2.30;82.10;;;;;;5157592;27;19914;-85
2021/01/16 15:09:36;;;;;;;;;;;2.30;81.50;;;;;;5139012;27;20347;-85
2021/01/16 15:12:10;;;;;;;;;;;2.30;82.30;;;;;;5138833;27;19961;-85
2021/01/16 15:14:38;;;;;;;;;;;2.20;82.50;;;;;;5139761;27;19906;-85
2021/01/16 15:17:13;;;;;;;;;;;2.30;82.80;;;;;;5136045;27;20018;-86
2021/01/16 15:19:49;;;;;;;;;;;2.20;83.20;;;;;;5139526;27;19915;-86